Detall de PIREP

Printer-friendly versionPDF version

[2013/03/06 16:05:00]
Flight IATA:CT3309
Pilot Number:012
Company ICAO:CAT
Aircraft Type:A320/E
PAX:120
Departing Airport: HLLT
Destination Airport: LEZG
Alternate Airport:LEMD
Online: VATSIM
Route:TANLI UP128 TBS UA31 ALR UG30 SADAF UN856 RES UN863 ARBEK UN725 LOBAR
Flight Level:F360
No Slew and time accel
No pause
Crash detect
Detect pilot in Cockpit between each 30 and 45 minutes
16:05 Zero fuel Weight: 118176 Lbs, Fuel Weight: 23739 Lbs
16:05 VATSIM:HLLT 061150Z 21014KT 1000 DU NSC 29/05 Q1005
16:05 VATSIM:LEZG 061530Z 00000KT 9999 FEW040 20/08 Q0995
16:05 VOICE CATALONIAN
16:13 Parking Brakes off
16:19 Take-off
16:19 Take off Weight: 140975 Lbs
16:19 Wind: 209º @ 014 Knots Heading: 265º
16:19 POS N32º 39´ 53´´ E013º 08´ 42´´
16:19 Gear Up: 172 Knots
16:19 Flaps:3 at 172 Knots
16:19 Flaps:2 at 193 Knots
16:19 Flaps:1 at 199 Knots
16:20 Flaps:0 at 224 Knots
16:34 Wind:256º@059 Knots Heading: 300º Ground Speed: 421 Knots Altitude 33126 ft
16:35 TOC
16:35 Fuel Weight: 18986 Lb
16:49 Wind:270º@056 Knots Heading: 302º Ground Speed: 408 Knots Altitude 35738 ft
17:04 Wind:270º@049 Knots Heading: 299º Ground Speed: 412 Knots Altitude 35784 ft
17:19 Wind:274º@049 Knots Heading: 275º Ground Speed: 405 Knots Altitude 35748 ft
17:34 Wind:292º@066 Knots Heading: 280º Ground Speed: 391 Knots Altitude 35721 ft
17:49 Wind:292º@063 Knots Heading: 323º Ground Speed: 404 Knots Altitude 35718 ft
18:04 Wind:287º@043 Knots Heading: 324º Ground Speed: 420 Knots Altitude 35577 ft
18:19 Wind:245º@019 Knots Heading: 351º Ground Speed: 456 Knots Altitude 35492 ft
18:26 TOD
18:26 Fuel Weight: 8947 Lb
18:34 Wind:252º@019 Knots Heading: 284º Ground Speed: 312 Knots Altitude 13838 ft
18:42 Flaps:1 at 213 Knots
18:44 Flaps:3 at 208 Knots
18:45Gear Down: 141 Knots
18:46 Flaps:4 at 144 Knots
18:47 Flaps:5 at 138 Knots
18:49 Wind:250º@011 Knots Heading: 297º Ground Speed: 135 Knots Altitude 1899 ft
18:51 TouchDown:Rate -109 ft/min Speed: 132 Knots
18:51 VATSIM:LEZG 061830Z 26013KT 9999 FEW015 SCT070 16/10 Q0997
18:51 Land
18:51 Wind:248º@012 Knots
18:51 Heading: 298º
18:51 Flight Duration: 02:32
18:51 Landing Weight: 125073 Lbs
18:51 POS N41º 39´ 50´´ W001º 01´ 41´´
18:54 Parking brakes on
18:54 Block to Block Duration: 02:41
18:54 Final Fuel: 6655 Lbls
18:54 Spent Fuel: 17083 Lbls
18:54 Flight Length: 979 NM
18:54 TOD Land Length: 114 NM

Exportar CSV

Powered by Drupal - Modified by Danger4k